Terminal Aerodrome Forecast
Issued by NWS

Home | Current Version | Previous Version | Text Only | Print | Product List | Glossary On
Versions: 1 2 3 4 5 6 7 8 9 10 11 12 13 14 15 16 17 18 19 20 21 22 23 24 25 26
000
FTUS43 KEAX 290926 AAB
TAFMKC
TAF AMD
KMKC 290926Z 2909/3006 07015G25KT 4SM -TSRA BR OVC012CB
      TEMPO 2909/2912 2SM +TSRA BR BKN009CB
     FM291600 08014KT 3SM SHRA BR VCTS OVC005CB
     FM292000 09012KT 3SM SHRA BR VCTS OVC008CB
     FM300100 07009KT 4SM BR VCSH OVC010
     FM300400 06007KT 5SM BR VCSH BKN008=

USA.gov is the U.S. government's official web portal to all federal, state and local government web resources and services.